sensor_id;sensor_type;location;lat;lon;timestamp;P1;durP1;ratioP1;P2;durP2;ratioP2
6999;SDS011;3540;53.242;10.408;2022-12-18T00:02:12;27.23;;;16.00;;
6999;SDS011;3540;53.242;10.408;2022-12-18T00:04:38;32.57;;;16.50;;
6999;SDS011;3540;53.242;10.408;2022-12-18T00:07:04;33.47;;;17.30;;
6999;SDS011;3540;53.242;10.408;2022-12-18T00:09:29;30.13;;;15.20;;
6999;SDS011;3540;53.242;10.408;2022-12-18T00:11:55;29.97;;;16.77;;
6999;SDS011;3540;53.242;10.408;2022-12-18T00:14:20;32.37;;;17.23;;
6999;SDS011;3540;53.242;10.408;2022-12-18T00:16:46;29.90;;;16.73;;
6999;SDS011;3540;53.242;10.408;2022-12-18T00:19:12;31.83;;;17.17;;
6999;SDS011;3540;53.242;10.408;2022-12-18T00:21:39;35.70;;;17.60;;
6999;SDS011;3540;53.242;10.408;2022-12-18T00:24:05;38.70;;;18.20;;
6999;SDS011;3540;53.242;10.408;2022-12-18T00:26:32;35.67;;;17.97;;
6999;SDS011;3540;53.242;10.408;2022-12-18T00:29:03;34.33;;;17.00;;
6999;SDS011;3540;53.242;10.408;2022-12-18T00:31:31;39.67;;;18.03;;
6999;SDS011;3540;53.242;10.408;2022-12-18T00:33:57;30.63;;;18.37;;
6999;SDS011;3540;53.242;10.408;2022-12-18T00:36:24;36.40;;;17.90;;
6999;SDS011;3540;53.242;10.408;2022-12-18T00:38:52;32.47;;;17.90;;
6999;SDS011;3540;53.242;10.408;2022-12-18T00:41:19;28.83;;;17.63;;
6999;SDS011;3540;53.242;10.408;2022-12-18T00:44:04;33.13;;;18.10;;
6999;SDS011;3540;53.242;10.408;2022-12-18T00:46:31;35.03;;;18.30;;
6999;SDS011;3540;53.242;10.408;2022-12-18T00:48:57;34.00;;;18.00;;
6999;SDS011;3540;53.242;10.408;2022-12-18T00:51:23;34.83;;;18.30;;
6999;SDS011;3540;53.242;10.408;2022-12-18T00:53:49;34.33;;;17.70;;
6999;SDS011;3540;53.242;10.408;2022-12-18T00:56:15;36.93;;;18.77;;
6999;SDS011;3540;53.242;10.408;2022-12-18T00:58:40;36.87;;;18.73;;
6999;SDS011;3540;53.242;10.408;2022-12-18T01:01:06;39.93;;;19.63;;
6999;SDS011;3540;53.242;10.408;2022-12-18T01:03:32;42.37;;;19.07;;
6999;SDS011;3540;53.242;10.408;2022-12-18T01:05:58;45.80;;;21.03;;
6999;SDS011;3540;53.242;10.408;2022-12-18T01:08:24;52.80;;;22.47;;
6999;SDS011;3540;53.242;10.408;2022-12-18T01:10:50;43.03;;;20.90;;
6999;SDS011;3540;53.242;10.408;2022-12-18T01:13:16;44.33;;;20.20;;
6999;SDS011;3540;53.242;10.408;2022-12-18T01:15:47;50.37;;;21.83;;
6999;SDS011;3540;53.242;10.408;2022-12-18T01:18:16;47.97;;;20.90;;
6999;SDS011;3540;53.242;10.408;2022-12-18T01:20:42;34.63;;;18.83;;
6999;SDS011;3540;53.242;10.408;2022-12-18T01:23:08;39.10;;;19.50;;
6999;SDS011;3540;53.242;10.408;2022-12-18T01:25:35;51.23;;;22.53;;
6999;SDS011;3540;53.242;10.408;2022-12-18T01:28:01;48.07;;;20.90;;
6999;SDS011;3540;53.242;10.408;2022-12-18T01:30:27;43.33;;;20.80;;
6999;SDS011;3540;53.242;10.408;2022-12-18T01:32:52;36.27;;;19.37;;
6999;SDS011;3540;53.242;10.408;2022-12-18T01:35:18;33.80;;;18.17;;
6999;SDS011;3540;53.242;10.408;2022-12-18T01:37:44;49.30;;;21.03;;
6999;SDS011;3540;53.242;10.408;2022-12-18T01:40:10;37.20;;;19.60;;
6999;SDS011;3540;53.242;10.408;2022-12-18T01:42:36;40.80;;;18.23;;
6999;SDS011;3540;53.242;10.408;2022-12-18T01:47:38;38.70;;;18.20;;
6999;SDS011;3540;53.242;10.408;2022-12-18T01:50:12;36.03;;;18.43;;
6999;SDS011;3540;53.242;10.408;2022-12-18T01:52:41;38.43;;;18.50;;
6999;SDS011;3540;53.242;10.408;2022-12-18T01:55:08;37.53;;;18.00;;
6999;SDS011;3540;53.242;10.408;2022-12-18T01:57:35;37.50;;;18.77;;
6999;SDS011;3540;53.242;10.408;2022-12-18T02:00:07;34.13;;;18.23;;
6999;SDS011;3540;53.242;10.408;2022-12-18T02:02:40;31.63;;;17.77;;
6999;SDS011;3540;53.242;10.408;2022-12-18T02:05:07;33.93;;;18.90;;
6999;SDS011;3540;53.242;10.408;2022-12-18T02:07:42;35.30;;;18.47;;
6999;SDS011;3540;53.242;10.408;2022-12-18T02:15:28;33.90;;;17.83;;
6999;SDS011;3540;53.242;10.408;2022-12-18T02:20:45;38.33;;;18.80;;
6999;SDS011;3540;53.242;10.408;2022-12-18T02:26:28;35.00;;;18.60;;
6999;SDS011;3540;53.242;10.408;2022-12-18T02:29:02;36.53;;;19.53;;
6999;SDS011;3540;53.242;10.408;2022-12-18T02:31:43;36.60;;;18.00;;
6999;SDS011;3540;53.242;10.408;2022-12-18T02:34:14;33.90;;;18.60;;
6999;SDS011;3540;53.242;10.408;2022-12-18T02:36:42;32.73;;;18.67;;
6999;SDS011;3540;53.242;10.408;2022-12-18T02:39:10;30.40;;;17.67;;
6999;SDS011;3540;53.242;10.408;2022-12-18T02:41:38;28.80;;;17.50;;
6999;SDS011;3540;53.242;10.408;2022-12-18T02:44:08;36.43;;;17.87;;
6999;SDS011;3540;53.242;10.408;2022-12-18T02:46:41;36.60;;;17.90;;
6999;SDS011;3540;53.242;10.408;2022-12-18T02:49:19;32.33;;;18.00;;
6999;SDS011;3540;53.242;10.408;2022-12-18T02:52:05;32.87;;;17.73;;
6999;SDS011;3540;53.242;10.408;2022-12-18T02:57:14;35.97;;;17.90;;
6999;SDS011;3540;53.242;10.408;2022-12-18T02:59:47;34.10;;;18.60;;
6999;SDS011;3540;53.242;10.408;2022-12-18T03:05:17;34.87;;;18.13;;
6999;SDS011;3540;53.242;10.408;2022-12-18T03:07:56;36.90;;;18.77;;
6999;SDS011;3540;53.242;10.408;2022-12-18T03:10:29;38.73;;;18.97;;
6999;SDS011;3540;53.242;10.408;2022-12-18T03:13:03;33.97;;;18.47;;
6999;SDS011;3540;53.242;10.408;2022-12-18T03:15:42;35.17;;;18.27;;
6999;SDS011;3540;53.242;10.408;2022-12-18T03:18:13;43.70;;;19.10;;
6999;SDS011;3540;53.242;10.408;2022-12-18T03:20:45;34.77;;;17.93;;
6999;SDS011;3540;53.242;10.408;2022-12-18T03:23:15;37.93;;;20.13;;
6999;SDS011;3540;53.242;10.408;2022-12-18T03:25:45;38.10;;;18.87;;
6999;SDS011;3540;53.242;10.408;2022-12-18T03:28:14;37.50;;;19.70;;
6999;SDS011;3540;53.242;10.408;2022-12-18T03:30:44;42.13;;;19.60;;
6999;SDS011;3540;53.242;10.408;2022-12-18T03:33:16;37.53;;;19.67;;
6999;SDS011;3540;53.242;10.408;2022-12-18T03:35:48;41.40;;;19.23;;
6999;SDS011;3540;53.242;10.408;2022-12-18T03:38:14;36.43;;;18.47;;
6999;SDS011;3540;53.242;10.408;2022-12-18T03:46:05;38.37;;;19.10;;
6999;SDS011;3540;53.242;10.408;2022-12-18T03:48:38;36.83;;;19.60;;
6999;SDS011;3540;53.242;10.408;2022-12-18T03:51:15;41.00;;;18.87;;
6999;SDS011;3540;53.242;10.408;2022-12-18T03:56:26;34.87;;;19.13;;
6999;SDS011;3540;53.242;10.408;2022-12-18T03:58:55;39.53;;;20.13;;
6999;SDS011;3540;53.242;10.408;2022-12-18T04:01:32;35.23;;;19.53;;
6999;SDS011;3540;53.242;10.408;2022-12-18T04:04:00;39.77;;;20.00;;
6999;SDS011;3540;53.242;10.408;2022-12-18T04:06:27;37.23;;;18.90;;
6999;SDS011;3540;53.242;10.408;2022-12-18T04:08:54;37.77;;;20.00;;
6999;SDS011;3540;53.242;10.408;2022-12-18T04:11:20;35.03;;;19.00;;
6999;SDS011;3540;53.242;10.408;2022-12-18T04:13:45;36.87;;;19.43;;
6999;SDS011;3540;53.242;10.408;2022-12-18T04:16:11;37.77;;;19.30;;
6999;SDS011;3540;53.242;10.408;2022-12-18T04:18:36;38.50;;;18.90;;
6999;SDS011;3540;53.242;10.408;2022-12-18T04:21:02;41.10;;;20.30;;
6999;SDS011;3540;53.242;10.408;2022-12-18T04:23:28;35.83;;;18.50;;
6999;SDS011;3540;53.242;10.408;2022-12-18T04:25:54;37.53;;;20.70;;
6999;SDS011;3540;53.242;10.408;2022-12-18T04:28:20;37.40;;;20.07;;
6999;SDS011;3540;53.242;10.408;2022-12-18T04:30:45;40.90;;;19.27;;
6999;SDS011;3540;53.242;10.408;2022-12-18T04:33:13;32.90;;;18.97;;
6999;SDS011;3540;53.242;10.408;2022-12-18T04:35:41;38.83;;;20.73;;
6999;SDS011;3540;53.242;10.408;2022-12-18T04:38:07;41.13;;;20.50;;
6999;SDS011;3540;53.242;10.408;2022-12-18T04:40:33;43.47;;;20.63;;
6999;SDS011;3540;53.242;10.408;2022-12-18T04:42:59;42.90;;;21.40;;
6999;SDS011;3540;53.242;10.408;2022-12-18T04:45:25;37.47;;;20.50;;
6999;SDS011;3540;53.242;10.408;2022-12-18T04:47:50;38.63;;;20.67;;
6999;SDS011;3540;53.242;10.408;2022-12-18T04:50:16;39.93;;;20.10;;
6999;SDS011;3540;53.242;10.408;2022-12-18T04:52:42;47.73;;;20.40;;
6999;SDS011;3540;53.242;10.408;2022-12-18T04:55:07;37.47;;;19.87;;
6999;SDS011;3540;53.242;10.408;2022-12-18T04:57:33;39.30;;;20.03;;
6999;SDS011;3540;53.242;10.408;2022-12-18T04:59:58;35.30;;;19.33;;
6999;SDS011;3540;53.242;10.408;2022-12-18T05:02:24;41.63;;;20.00;;
6999;SDS011;3540;53.242;10.408;2022-12-18T05:04:50;42.10;;;20.23;;
6999;SDS011;3540;53.242;10.408;2022-12-18T05:07:15;38.63;;;19.67;;
6999;SDS011;3540;53.242;10.408;2022-12-18T05:09:41;36.83;;;19.03;;
6999;SDS011;3540;53.242;10.408;2022-12-18T05:12:07;47.07;;;20.37;;
6999;SDS011;3540;53.242;10.408;2022-12-18T05:14:32;41.83;;;20.53;;
6999;SDS011;3540;53.242;10.408;2022-12-18T05:16:58;37.93;;;19.83;;
6999;SDS011;3540;53.242;10.408;2022-12-18T05:19:23;35.93;;;19.53;;
6999;SDS011;3540;53.242;10.408;2022-12-18T05:21:49;39.13;;;19.17;;
6999;SDS011;3540;53.242;10.408;2022-12-18T05:24:15;45.27;;;21.67;;
6999;SDS011;3540;53.242;10.408;2022-12-18T05:26:40;36.10;;;18.70;;
6999;SDS011;3540;53.242;10.408;2022-12-18T05:29:06;40.23;;;19.70;;
6999;SDS011;3540;53.242;10.408;2022-12-18T05:31:31;38.60;;;19.87;;
6999;SDS011;3540;53.242;10.408;2022-12-18T05:33:57;42.30;;;20.73;;
6999;SDS011;3540;53.242;10.408;2022-12-18T05:36:26;39.63;;;19.63;;
6999;SDS011;3540;53.242;10.408;2022-12-18T05:38:51;43.03;;;20.20;;
6999;SDS011;3540;53.242;10.408;2022-12-18T05:41:17;38.27;;;19.77;;
6999;SDS011;3540;53.242;10.408;2022-12-18T05:43:42;42.53;;;21.17;;
6999;SDS011;3540;53.242;10.408;2022-12-18T05:46:11;41.00;;;20.13;;
6999;SDS011;3540;53.242;10.408;2022-12-18T05:48:38;36.97;;;19.90;;
6999;SDS011;3540;53.242;10.408;2022-12-18T05:51:08;40.10;;;19.40;;
6999;SDS011;3540;53.242;10.408;2022-12-18T05:53:35;35.70;;;19.77;;
6999;SDS011;3540;53.242;10.408;2022-12-18T05:56:02;40.37;;;19.07;;
6999;SDS011;3540;53.242;10.408;2022-12-18T05:58:29;36.97;;;18.13;;
6999;SDS011;3540;53.242;10.408;2022-12-18T06:00:55;33.37;;;18.33;;
6999;SDS011;3540;53.242;10.408;2022-12-18T06:03:21;40.63;;;19.03;;
6999;SDS011;3540;53.242;10.408;2022-12-18T06:05:47;38.27;;;19.03;;
6999;SDS011;3540;53.242;10.408;2022-12-18T06:08:12;40.17;;;19.13;;
6999;SDS011;3540;53.242;10.408;2022-12-18T06:10:38;37.03;;;19.17;;
6999;SDS011;3540;53.242;10.408;2022-12-18T06:13:05;41.00;;;20.20;;
6999;SDS011;3540;53.242;10.408;2022-12-18T06:15:31;36.10;;;18.63;;
6999;SDS011;3540;53.242;10.408;2022-12-18T06:17:57;40.07;;;20.17;;
6999;SDS011;3540;53.242;10.408;2022-12-18T06:20:26;42.03;;;19.70;;
6999;SDS011;3540;53.242;10.408;2022-12-18T06:22:54;38.00;;;19.70;;
6999;SDS011;3540;53.242;10.408;2022-12-18T06:25:20;39.57;;;19.83;;
6999;SDS011;3540;53.242;10.408;2022-12-18T06:27:47;41.70;;;20.50;;
6999;SDS011;3540;53.242;10.408;2022-12-18T06:30:13;37.27;;;19.27;;
6999;SDS011;3540;53.242;10.408;2022-12-18T06:32:39;37.33;;;19.77;;
6999;SDS011;3540;53.242;10.408;2022-12-18T06:35:05;41.70;;;20.50;;
6999;SDS011;3540;53.242;10.408;2022-12-18T06:37:31;41.10;;;19.87;;
6999;SDS011;3540;53.242;10.408;2022-12-18T06:39:56;44.37;;;20.27;;
6999;SDS011;3540;53.242;10.408;2022-12-18T06:42:22;35.13;;;17.83;;
6999;SDS011;3540;53.242;10.408;2022-12-18T06:44:49;40.27;;;19.33;;
6999;SDS011;3540;53.242;10.408;2022-12-18T06:47:14;43.33;;;20.57;;
6999;SDS011;3540;53.242;10.408;2022-12-18T06:49:40;40.37;;;20.33;;
6999;SDS011;3540;53.242;10.408;2022-12-18T06:52:06;36.93;;;20.03;;
6999;SDS011;3540;53.242;10.408;2022-12-18T06:54:31;39.73;;;19.50;;
6999;SDS011;3540;53.242;10.408;2022-12-18T06:56:57;38.80;;;18.93;;
6999;SDS011;3540;53.242;10.408;2022-12-18T06:59:22;34.97;;;18.87;;
6999;SDS011;3540;53.242;10.408;2022-12-18T07:01:48;42.90;;;19.83;;
6999;SDS011;3540;53.242;10.408;2022-12-18T07:04:13;41.00;;;19.73;;
6999;SDS011;3540;53.242;10.408;2022-12-18T07:06:39;39.37;;;19.60;;
6999;SDS011;3540;53.242;10.408;2022-12-18T07:09:05;39.43;;;19.67;;
6999;SDS011;3540;53.242;10.408;2022-12-18T07:11:32;40.20;;;20.63;;
6999;SDS011;3540;53.242;10.408;2022-12-18T07:13:58;38.50;;;19.57;;
6999;SDS011;3540;53.242;10.408;2022-12-18T07:16:24;39.03;;;19.97;;
6999;SDS011;3540;53.242;10.408;2022-12-18T07:18:50;38.83;;;18.70;;
6999;SDS011;3540;53.242;10.408;2022-12-18T07:21:16;42.23;;;20.73;;
6999;SDS011;3540;53.242;10.408;2022-12-18T07:23:43;37.73;;;19.53;;
6999;SDS011;3540;53.242;10.408;2022-12-18T07:26:13;43.90;;;20.43;;
6999;SDS011;3540;53.242;10.408;2022-12-18T07:28:41;39.70;;;19.80;;
6999;SDS011;3540;53.242;10.408;2022-12-18T07:31:09;39.63;;;19.87;;
6999;SDS011;3540;53.242;10.408;2022-12-18T07:33:36;41.40;;;20.33;;
6999;SDS011;3540;53.242;10.408;2022-12-18T07:36:03;39.93;;;20.17;;
6999;SDS011;3540;53.242;10.408;2022-12-18T07:38:30;40.20;;;20.53;;
6999;SDS011;3540;53.242;10.408;2022-12-18T07:43:32;40.47;;;19.77;;
6999;SDS011;3540;53.242;10.408;2022-12-18T07:45:58;40.17;;;19.50;;
6999;SDS011;3540;53.242;10.408;2022-12-18T07:48:24;41.47;;;20.77;;
6999;SDS011;3540;53.242;10.408;2022-12-18T07:50:50;39.87;;;20.27;;
6999;SDS011;3540;53.242;10.408;2022-12-18T07:53:15;41.87;;;21.17;;
6999;SDS011;3540;53.242;10.408;2022-12-18T07:55:41;40.50;;;19.77;;
6999;SDS011;3540;53.242;10.408;2022-12-18T07:58:07;41.23;;;21.80;;
6999;SDS011;3540;53.242;10.408;2022-12-18T08:00:34;42.50;;;21.40;;
6999;SDS011;3540;53.242;10.408;2022-12-18T08:02:59;44.87;;;21.57;;
6999;SDS011;3540;53.242;10.408;2022-12-18T08:05:26;40.60;;;21.27;;
6999;SDS011;3540;53.242;10.408;2022-12-18T08:07:52;45.80;;;21.20;;
6999;SDS011;3540;53.242;10.408;2022-12-18T08:10:18;45.77;;;21.67;;
6999;SDS011;3540;53.242;10.408;2022-12-18T08:12:44;46.67;;;20.87;;
6999;SDS011;3540;53.242;10.408;2022-12-18T08:15:10;42.60;;;21.43;;
6999;SDS011;3540;53.242;10.408;2022-12-18T08:17:36;42.30;;;20.47;;
6999;SDS011;3540;53.242;10.408;2022-12-18T08:20:02;37.83;;;20.83;;
6999;SDS011;3540;53.242;10.408;2022-12-18T08:22:27;45.30;;;21.00;;
6999;SDS011;3540;53.242;10.408;2022-12-18T08:24:53;45.17;;;20.43;;
6999;SDS011;3540;53.242;10.408;2022-12-18T08:27:19;46.13;;;21.00;;
6999;SDS011;3540;53.242;10.408;2022-12-18T08:29:44;44.27;;;21.90;;
6999;SDS011;3540;53.242;10.408;2022-12-18T08:32:10;43.00;;;21.87;;
6999;SDS011;3540;53.242;10.408;2022-12-18T08:34:35;45.33;;;21.50;;
6999;SDS011;3540;53.242;10.408;2022-12-18T08:37:01;42.00;;;21.33;;
6999;SDS011;3540;53.242;10.408;2022-12-18T08:39:27;35.57;;;19.77;;
6999;SDS011;3540;53.242;10.408;2022-12-18T08:41:52;41.83;;;21.40;;
6999;SDS011;3540;53.242;10.408;2022-12-18T08:44:37;43.17;;;20.00;;
6999;SDS011;3540;53.242;10.408;2022-12-18T08:47:03;40.27;;;20.97;;
6999;SDS011;3540;53.242;10.408;2022-12-18T08:49:29;38.90;;;20.93;;
6999;SDS011;3540;53.242;10.408;2022-12-18T08:51:55;41.50;;;20.70;;
6999;SDS011;3540;53.242;10.408;2022-12-18T08:54:24;40.67;;;20.57;;
6999;SDS011;3540;53.242;10.408;2022-12-18T08:56:50;40.37;;;20.20;;
6999;SDS011;3540;53.242;10.408;2022-12-18T08:59:16;37.83;;;19.97;;
6999;SDS011;3540;53.242;10.408;2022-12-18T09:01:43;41.47;;;20.90;;
6999;SDS011;3540;53.242;10.408;2022-12-18T09:04:09;39.57;;;20.77;;
6999;SDS011;3540;53.242;10.408;2022-12-18T09:06:35;44.40;;;19.83;;
6999;SDS011;3540;53.242;10.408;2022-12-18T09:09:01;41.83;;;20.07;;
6999;SDS011;3540;53.242;10.408;2022-12-18T09:11:28;41.87;;;21.20;;
6999;SDS011;3540;53.242;10.408;2022-12-18T09:13:56;44.07;;;21.03;;
6999;SDS011;3540;53.242;10.408;2022-12-18T09:16:23;39.10;;;20.60;;
6999;SDS011;3540;53.242;10.408;2022-12-18T09:18:50;38.70;;;19.87;;
6999;SDS011;3540;53.242;10.408;2022-12-18T09:21:20;42.03;;;20.53;;
6999;SDS011;3540;53.242;10.408;2022-12-18T09:23:49;40.17;;;19.33;;
6999;SDS011;3540;53.242;10.408;2022-12-18T09:26:16;39.13;;;19.53;;
6999;SDS011;3540;53.242;10.408;2022-12-18T09:28:42;41.30;;;21.27;;
6999;SDS011;3540;53.242;10.408;2022-12-18T09:31:08;41.83;;;21.53;;
6999;SDS011;3540;53.242;10.408;2022-12-18T09:33:40;35.50;;;19.97;;
6999;SDS011;3540;53.242;10.408;2022-12-18T09:36:06;39.67;;;19.80;;
6999;SDS011;3540;53.242;10.408;2022-12-18T09:38:34;38.57;;;19.83;;
6999;SDS011;3540;53.242;10.408;2022-12-18T09:41:03;38.20;;;19.53;;
6999;SDS011;3540;53.242;10.408;2022-12-18T09:43:45;36.57;;;18.50;;
6999;SDS011;3540;53.242;10.408;2022-12-18T09:46:17;39.80;;;19.83;;
6999;SDS011;3540;53.242;10.408;2022-12-18T09:48:50;39.43;;;20.10;;
6999;SDS011;3540;53.242;10.408;2022-12-18T09:51:25;36.07;;;18.70;;
6999;SDS011;3540;53.242;10.408;2022-12-18T09:54:03;40.87;;;20.30;;
6999;SDS011;3540;53.242;10.408;2022-12-18T09:56:34;40.37;;;18.63;;
6999;SDS011;3540;53.242;10.408;2022-12-18T09:59:03;34.40;;;17.70;;
6999;SDS011;3540;53.242;10.408;2022-12-18T10:01:31;36.37;;;18.87;;
6999;SDS011;3540;53.242;10.408;2022-12-18T10:03:57;38.37;;;19.10;;
6999;SDS011;3540;53.242;10.408;2022-12-18T10:12:22;41.50;;;21.20;;
6999;SDS011;3540;53.242;10.408;2022-12-18T10:14:57;39.53;;;19.43;;
6999;SDS011;3540;53.242;10.408;2022-12-18T10:25:34;40.17;;;20.07;;
6999;SDS011;3540;53.242;10.408;2022-12-18T10:28:22;37.53;;;17.77;;
6999;SDS011;3540;53.242;10.408;2022-12-18T10:30:49;36.53;;;18.57;;
6999;SDS011;3540;53.242;10.408;2022-12-18T10:33:20;35.67;;;19.87;;
6999;SDS011;3540;53.242;10.408;2022-12-18T10:35:49;37.87;;;20.43;;
6999;SDS011;3540;53.242;10.408;2022-12-18T10:38:24;39.10;;;20.47;;
6999;SDS011;3540;53.242;10.408;2022-12-18T10:43:21;30.90;;;18.00;;
6999;SDS011;3540;53.242;10.408;2022-12-18T10:45:59;33.63;;;17.97;;
6999;SDS011;3540;53.242;10.408;2022-12-18T10:48:36;38.37;;;17.97;;
6999;SDS011;3540;53.242;10.408;2022-12-18T10:51:02;35.53;;;18.60;;
6999;SDS011;3540;53.242;10.408;2022-12-18T10:53:29;36.27;;;18.80;;
6999;SDS011;3540;53.242;10.408;2022-12-18T10:56:00;32.40;;;17.40;;
6999;SDS011;3540;53.242;10.408;2022-12-18T10:58:33;32.23;;;17.60;;
6999;SDS011;3540;53.242;10.408;2022-12-18T11:01:02;32.60;;;17.53;;
6999;SDS011;3540;53.242;10.408;2022-12-18T11:03:36;34.20;;;16.80;;
6999;SDS011;3540;53.242;10.408;2022-12-18T11:06:11;35.13;;;16.87;;
6999;SDS011;3540;53.242;10.408;2022-12-18T11:08:40;32.20;;;17.43;;
6999;SDS011;3540;53.242;10.408;2022-12-18T11:11:15;30.13;;;16.13;;
6999;SDS011;3540;53.242;10.408;2022-12-18T11:13:53;32.50;;;17.17;;
6999;SDS011;3540;53.242;10.408;2022-12-18T11:16:25;36.23;;;17.70;;
6999;SDS011;3540;53.242;10.408;2022-12-18T11:18:52;34.37;;;17.60;;
6999;SDS011;3540;53.242;10.408;2022-12-18T11:21:18;32.83;;;17.57;;
6999;SDS011;3540;53.242;10.408;2022-12-18T11:23:49;35.30;;;17.17;;
6999;SDS011;3540;53.242;10.408;2022-12-18T11:26:16;31.80;;;16.90;;
6999;SDS011;3540;53.242;10.408;2022-12-18T11:31:33;30.53;;;16.93;;
6999;SDS011;3540;53.242;10.408;2022-12-18T11:36:36;34.20;;;18.30;;
6999;SDS011;3540;53.242;10.408;2022-12-18T11:39:31;29.13;;;15.97;;
6999;SDS011;3540;53.242;10.408;2022-12-18T11:41:59;34.20;;;17.97;;
6999;SDS011;3540;53.242;10.408;2022-12-18T11:44:52;32.23;;;16.83;;
6999;SDS011;3540;53.242;10.408;2022-12-18T11:50:25;36.47;;;17.73;;
6999;SDS011;3540;53.242;10.408;2022-12-18T11:52:56;29.90;;;16.77;;
6999;SDS011;3540;53.242;10.408;2022-12-18T12:01:00;33.50;;;16.83;;
6999;SDS011;3540;53.242;10.408;2022-12-18T12:03:49;31.20;;;16.33;;
6999;SDS011;3540;53.242;10.408;2022-12-18T12:06:24;33.23;;;16.60;;
6999;SDS011;3540;53.242;10.408;2022-12-18T12:09:07;34.90;;;17.67;;
6999;SDS011;3540;53.242;10.408;2022-12-18T12:16:57;30.90;;;15.70;;
6999;SDS011;3540;53.242;10.408;2022-12-18T12:22:48;30.20;;;15.27;;
6999;SDS011;3540;53.242;10.408;2022-12-18T12:28:19;29.73;;;15.13;;
6999;SDS011;3540;53.242;10.408;2022-12-18T12:33:39;27.37;;;15.00;;
6999;SDS011;3540;53.242;10.408;2022-12-18T12:39:00;32.00;;;16.57;;
6999;SDS011;3540;53.242;10.408;2022-12-18T12:41:30;34.63;;;16.60;;
6999;SDS011;3540;53.242;10.408;2022-12-18T12:44:24;31.57;;;15.83;;
6999;SDS011;3540;53.242;10.408;2022-12-18T12:46:55;31.93;;;16.00;;
6999;SDS011;3540;53.242;10.408;2022-12-18T12:49:26;36.83;;;17.43;;
6999;SDS011;3540;53.242;10.408;2022-12-18T12:52:06;32.80;;;17.27;;
6999;SDS011;3540;53.242;10.408;2022-12-18T12:54:37;33.63;;;17.00;;
6999;SDS011;3540;53.242;10.408;2022-12-18T13:04:52;34.77;;;18.00;;
6999;SDS011;3540;53.242;10.408;2022-12-18T13:07:41;31.43;;;16.60;;
6999;SDS011;3540;53.242;10.408;2022-12-18T13:10:32;44.83;;;20.57;;
6999;SDS011;3540;53.242;10.408;2022-12-18T13:31:12;40.13;;;19.77;;
6999;SDS011;3540;53.242;10.408;2022-12-18T13:36:54;38.43;;;19.10;;
6999;SDS011;3540;53.242;10.408;2022-12-18T13:39:39;41.20;;;19.83;;
6999;SDS011;3540;53.242;10.408;2022-12-18T13:46:59;39.17;;;18.67;;
6999;SDS011;3540;53.242;10.408;2022-12-18T13:55:00;43.00;;;19.50;;
6999;SDS011;3540;53.242;10.408;2022-12-18T14:02:46;43.40;;;19.07;;
6999;SDS011;3540;53.242;10.408;2022-12-18T14:05:25;42.67;;;18.57;;
6999;SDS011;3540;53.242;10.408;2022-12-18T14:07:59;45.57;;;22.20;;
6999;SDS011;3540;53.242;10.408;2022-12-18T14:10:39;39.50;;;19.03;;
6999;SDS011;3540;53.242;10.408;2022-12-18T14:13:10;39.77;;;18.50;;
6999;SDS011;3540;53.242;10.408;2022-12-18T14:15:44;42.30;;;19.70;;
6999;SDS011;3540;53.242;10.408;2022-12-18T14:18:26;45.33;;;20.27;;
6999;SDS011;3540;53.242;10.408;2022-12-18T14:21:18;45.87;;;19.97;;
6999;SDS011;3540;53.242;10.408;2022-12-18T14:24:13;43.77;;;19.13;;
6999;SDS011;3540;53.242;10.408;2022-12-18T14:26:40;40.67;;;19.03;;
6999;SDS011;3540;53.242;10.408;2022-12-18T14:29:20;46.67;;;19.83;;
6999;SDS011;3540;53.242;10.408;2022-12-18T14:34:41;39.80;;;18.33;;
6999;SDS011;3540;53.242;10.408;2022-12-18T14:37:11;41.23;;;18.20;;
6999;SDS011;3540;53.242;10.408;2022-12-18T14:39:38;40.50;;;18.97;;
6999;SDS011;3540;53.242;10.408;2022-12-18T14:42:04;42.43;;;19.20;;
6999;SDS011;3540;53.242;10.408;2022-12-18T14:44:29;38.93;;;18.10;;
6999;SDS011;3540;53.242;10.408;2022-12-18T14:46:55;38.93;;;19.63;;
6999;SDS011;3540;53.242;10.408;2022-12-18T14:49:26;42.97;;;19.50;;
6999;SDS011;3540;53.242;10.408;2022-12-18T14:52:02;38.90;;;18.80;;
6999;SDS011;3540;53.242;10.408;2022-12-18T14:54:30;35.37;;;17.47;;
6999;SDS011;3540;53.242;10.408;2022-12-18T14:57:04;37.83;;;18.00;;
6999;SDS011;3540;53.242;10.408;2022-12-18T14:59:46;39.10;;;18.80;;
6999;SDS011;3540;53.242;10.408;2022-12-18T15:02:27;41.87;;;19.07;;
6999;SDS011;3540;53.242;10.408;2022-12-18T15:05:16;36.20;;;18.17;;
6999;SDS011;3540;53.242;10.408;2022-12-18T15:07:50;39.67;;;19.03;;
6999;SDS011;3540;53.242;10.408;2022-12-18T15:10:25;39.73;;;19.37;;
6999;SDS011;3540;53.242;10.408;2022-12-18T15:18:40;42.93;;;20.23;;
6999;SDS011;3540;53.242;10.408;2022-12-18T15:23:25;35.77;;;18.07;;
6999;SDS011;3540;53.242;10.408;2022-12-18T15:31:17;41.33;;;19.23;;
6999;SDS011;3540;53.242;10.408;2022-12-18T15:36:20;39.10;;;18.20;;
6999;SDS011;3540;53.242;10.408;2022-12-18T15:38:48;36.60;;;18.90;;
6999;SDS011;3540;53.242;10.408;2022-12-18T15:41:15;36.00;;;17.80;;
6999;SDS011;3540;53.242;10.408;2022-12-18T15:43:43;36.80;;;17.73;;
6999;SDS011;3540;53.242;10.408;2022-12-18T15:46:14;36.10;;;17.53;;
6999;SDS011;3540;53.242;10.408;2022-12-18T15:48:48;39.60;;;18.80;;
6999;SDS011;3540;53.242;10.408;2022-12-18T15:53:55;37.93;;;18.47;;
6999;SDS011;3540;53.242;10.408;2022-12-18T15:56:27;37.07;;;17.00;;
6999;SDS011;3540;53.242;10.408;2022-12-18T15:59:11;35.10;;;17.57;;
6999;SDS011;3540;53.242;10.408;2022-12-18T16:01:42;36.87;;;17.80;;
6999;SDS011;3540;53.242;10.408;2022-12-18T16:04:13;37.00;;;18.03;;
6999;SDS011;3540;53.242;10.408;2022-12-18T16:06:41;31.27;;;16.77;;
6999;SDS011;3540;53.242;10.408;2022-12-18T16:09:07;38.03;;;19.13;;
6999;SDS011;3540;53.242;10.408;2022-12-18T16:11:34;33.47;;;16.40;;
6999;SDS011;3540;53.242;10.408;2022-12-18T16:16:47;37.03;;;17.37;;
6999;SDS011;3540;53.242;10.408;2022-12-18T16:19:15;38.87;;;18.07;;
6999;SDS011;3540;53.242;10.408;2022-12-18T16:21:41;37.90;;;18.00;;
6999;SDS011;3540;53.242;10.408;2022-12-18T16:24:17;37.33;;;17.73;;
6999;SDS011;3540;53.242;10.408;2022-12-18T16:26:46;33.00;;;16.90;;
6999;SDS011;3540;53.242;10.408;2022-12-18T16:29:13;32.43;;;17.20;;
6999;SDS011;3540;53.242;10.408;2022-12-18T16:31:39;32.37;;;16.87;;
6999;SDS011;3540;53.242;10.408;2022-12-18T16:36:46;33.67;;;16.83;;
6999;SDS011;3540;53.242;10.408;2022-12-18T16:39:12;29.43;;;15.50;;
6999;SDS011;3540;53.242;10.408;2022-12-18T16:41:37;31.40;;;15.50;;
6999;SDS011;3540;53.242;10.408;2022-12-18T16:44:03;32.10;;;16.73;;
6999;SDS011;3540;53.242;10.408;2022-12-18T16:46:29;31.97;;;16.20;;
6999;SDS011;3540;53.242;10.408;2022-12-18T16:48:56;29.20;;;15.23;;
6999;SDS011;3540;53.242;10.408;2022-12-18T16:51:22;27.73;;;14.53;;
6999;SDS011;3540;53.242;10.408;2022-12-18T16:53:48;26.40;;;14.80;;
6999;SDS011;3540;53.242;10.408;2022-12-18T16:56:14;28.53;;;15.20;;
6999;SDS011;3540;53.242;10.408;2022-12-18T16:58:39;27.53;;;15.23;;
6999;SDS011;3540;53.242;10.408;2022-12-18T17:01:09;26.60;;;14.50;;
6999;SDS011;3540;53.242;10.408;2022-12-18T17:03:35;27.47;;;14.60;;
6999;SDS011;3540;53.242;10.408;2022-12-18T17:06:04;26.67;;;14.43;;
6999;SDS011;3540;53.242;10.408;2022-12-18T17:08:31;27.07;;;14.07;;
6999;SDS011;3540;53.242;10.408;2022-12-18T17:11:06;29.93;;;13.83;;
6999;SDS011;3540;53.242;10.408;2022-12-18T17:13:32;25.47;;;15.20;;
6999;SDS011;3540;53.242;10.408;2022-12-18T17:16:05;23.97;;;13.00;;